Terminal Aerodrome Forecast
Issued by NWS

Home | Current Version | Previous Version | Text Only | Print | Product List | Glossary Off
Versions: 1 2 3 4 5 6 7 8 9 10 11 12 13 14 15 16 17 18 19 20 21 22 23 24 25 26 27

000
FTUS45 KGGW 281700
TAFGDV
TAF
KGDV 281727Z 2818/2918 03010KT P6SM -SN SCT008 OVC015
     FM282000 04010KT P6SM -SN OVC015
     FM290100 03010KT P6SM OVC015
     FM290800 01008KT P6SM BKN015 OVC025
     FM291400 35008KT P6SM SCT015 OVC050
      AMD LTD TO CLD VIS AND WIND=

USA.gov is the U.S. government's official web portal to all federal, state and local government web resources and services.